createdAt,value
2019-02-11T00:00:02.141Z,5.97
2019-02-11T00:02:30.426Z,5.97
2019-02-11T00:04:58.729Z,5.97
2019-02-11T00:07:27.133Z,5.86
2019-02-11T00:09:55.404Z,5.86
2019-02-11T00:12:23.688Z,5.89
2019-02-11T00:14:52.027Z,5.93
2019-02-11T00:17:20.318Z,5.98
2019-02-11T00:19:50.022Z,5.98
2019-02-11T00:22:18.335Z,5.97
2019-02-11T00:24:46.958Z,5.98
2019-02-11T00:27:15.234Z,5.98
2019-02-11T00:29:43.557Z,5.98
2019-02-11T00:32:12.745Z,5.98
2019-02-11T00:34:41.026Z,6.05
2019-02-11T00:37:09.433Z,6.07
2019-02-11T00:39:37.776Z,5.99
2019-02-11T00:42:06.059Z,6.04
2019-02-11T00:44:34.293Z,6.04
2019-02-11T00:47:02.603Z,6.03
2019-02-11T00:49:30.900Z,6.11
2019-02-11T00:51:59.180Z,6.11
2019-02-11T00:54:27.486Z,6.07
2019-02-11T00:56:55.718Z,6.02
2019-02-11T00:59:24.059Z,6.02
2019-02-11T01:01:52.301Z,6.05
2019-02-11T01:04:20.638Z,6.07
2019-02-11T01:06:48.933Z,6.05
2019-02-11T01:09:17.188Z,6.03
2019-02-11T01:11:45.533Z,6.03
2019-02-11T01:14:13.769Z,6.06
2019-02-11T01:16:42.110Z,6.00
2019-02-11T01:19:10.338Z,6.00
2019-02-11T01:21:38.594Z,6.01
2019-02-11T01:24:07.457Z,5.97
2019-02-11T01:26:35.713Z,5.90
2019-02-11T01:29:03.983Z,5.90
2019-02-11T01:31:32.307Z,5.93
2019-02-11T01:34:00.741Z,5.93
2019-02-11T01:36:28.966Z,5.92
2019-02-11T01:38:57.225Z,5.92
2019-02-11T01:41:25.566Z,5.97
2019-02-11T01:43:53.844Z,5.95
2019-02-11T01:46:22.089Z,5.97
2019-02-11T01:48:51.394Z,5.97
2019-02-11T01:51:19.638Z,5.99
2019-02-11T01:53:47.940Z,5.96
2019-02-11T01:56:16.222Z,5.96
2019-02-11T01:58:44.649Z,5.91
2019-02-11T02:01:12.900Z,5.91
2019-02-11T02:03:41.165Z,5.90
2019-02-11T02:06:10.119Z,5.90
2019-02-11T02:08:38.434Z,5.87
2019-02-11T02:11:06.671Z,5.87
2019-02-11T02:13:34.976Z,5.87
2019-02-11T02:16:03.289Z,5.79
2019-02-11T02:18:31.638Z,5.79
2019-02-11T02:21:00.263Z,5.77
2019-02-11T02:23:28.499Z,5.77
2019-02-11T02:25:56.763Z,5.73
2019-02-11T02:28:25.092Z,5.73
2019-02-11T02:30:53.524Z,5.69
2019-02-11T02:33:21.786Z,5.69
2019-02-11T02:35:50.053Z,5.65
2019-02-11T02:38:18.370Z,5.58
2019-02-11T02:40:46.639Z,5.58
2019-02-11T02:43:14.938Z,5.60
2019-02-11T02:45:43.263Z,5.54
2019-02-11T02:48:11.555Z,5.55
2019-02-11T02:50:39.835Z,5.55
2019-02-11T02:53:08.084Z,5.47
2019-02-11T02:55:36.399Z,5.54
2019-02-11T02:58:04.668Z,5.49
2019-02-11T03:00:32.977Z,5.49
2019-02-11T03:03:01.262Z,5.49
2019-02-11T03:05:29.568Z,5.47
2019-02-11T03:07:57.849Z,5.45
2019-02-11T03:10:26.108Z,5.41
2019-02-11T03:12:54.375Z,5.41
2019-02-11T03:15:22.656Z,5.39
2019-02-11T03:17:50.906Z,5.38
2019-02-11T03:20:19.229Z,5.38
2019-02-11T03:22:47.530Z,5.35
2019-02-11T03:25:15.777Z,5.31
2019-02-11T03:27:44.080Z,5.31
2019-02-11T03:30:12.372Z,5.32
2019-02-11T03:32:40.637Z,5.36
2019-02-11T03:35:08.953Z,5.31
2019-02-11T03:37:37.213Z,5.24
2019-02-11T03:40:07.971Z,5.23
2019-02-11T03:42:36.408Z,5.23
2019-02-11T03:45:08.216Z,5.25
2019-02-11T03:47:36.476Z,5.25
2019-02-11T03:50:06.650Z,5.25
2019-02-11T03:52:35.505Z,5.20
2019-02-11T03:55:04.059Z,5.20
2019-02-11T03:57:34.152Z,5.21
2019-02-11T04:00:02.439Z,5.17
2019-02-11T04:02:30.697Z,5.17
2019-02-11T04:04:58.973Z,5.19
2019-02-11T04:07:27.371Z,5.15
2019-02-11T04:09:55.634Z,5.03
2019-02-11T04:12:23.946Z,5.03
2019-02-11T04:14:52.225Z,5.02
2019-02-11T04:17:20.516Z,4.98
2019-02-11T04:19:48.777Z,4.98
2019-02-11T04:22:17.163Z,4.94
2019-02-11T04:24:45.428Z,4.94
2019-02-11T04:27:13.793Z,4.94
2019-02-11T04:29:42.092Z,4.97
2019-02-11T04:32:10.387Z,4.96
2019-02-11T04:34:38.615Z,4.94
2019-02-11T04:37:06.939Z,4.94
2019-02-11T04:39:35.219Z,5.09
2019-02-11T04:42:03.514Z,5.09
2019-02-11T04:44:34.136Z,5.11
2019-02-11T04:47:01.803Z,5.09
2019-02-11T04:49:30.103Z,5.09
2019-02-11T04:51:58.980Z,5.06
2019-02-11T04:54:27.347Z,5.11
2019-02-11T04:56:55.627Z,5.11
2019-02-11T04:59:23.931Z,5.11
2019-02-11T05:01:52.227Z,5.10
2019-02-11T05:04:20.486Z,5.14
2019-02-11T05:06:48.751Z,5.14
2019-02-11T05:09:17.074Z,5.13
2019-02-11T05:11:45.372Z,5.17
2019-02-11T05:14:13.627Z,5.16
2019-02-11T05:16:41.947Z,5.14
2019-02-11T05:19:10.259Z,5.08
2019-02-11T05:21:38.562Z,5.11
2019-02-11T05:24:06.936Z,5.05
2019-02-11T05:26:35.673Z,5.05
2019-02-11T05:29:03.957Z,5.09
2019-02-11T05:31:32.945Z,5.09
2019-02-11T05:34:01.450Z,5.09
2019-02-11T05:36:29.864Z,5.09
2019-02-11T05:38:59.980Z,5.10
2019-02-11T05:41:28.951Z,5.08
2019-02-11T05:43:57.214Z,5.10
2019-02-11T05:46:25.476Z,5.09
2019-02-11T05:48:53.784Z,5.09
2019-02-11T05:51:22.029Z,5.10
2019-02-11T05:53:50.359Z,5.14
2019-02-11T05:56:18.791Z,5.13
2019-02-11T05:58:47.051Z,5.13
2019-02-11T06:01:16.086Z,5.09
2019-02-11T06:03:44.402Z,5.09
2019-02-11T06:06:12.702Z,5.10
2019-02-11T06:08:40.948Z,5.07
2019-02-11T06:11:09.232Z,5.08
2019-02-11T06:13:37.670Z,5.08
2019-02-11T06:16:06.002Z,5.09
2019-02-11T06:18:34.341Z,5.06
2019-02-11T06:21:02.619Z,5.07
2019-02-11T06:23:30.912Z,5.06
2019-02-11T06:25:59.224Z,5.12
2019-02-11T06:28:27.550Z,5.13
2019-02-11T06:30:55.824Z,5.13
2019-02-11T06:33:24.094Z,5.17
2019-02-11T06:35:52.373Z,5.21
2019-02-11T06:38:20.625Z,5.21
2019-02-11T06:40:48.918Z,5.29
2019-02-11T06:43:17.196Z,5.30
2019-02-11T06:45:45.503Z,5.29
2019-02-11T06:48:13.762Z,5.29
2019-02-11T06:50:42.046Z,5.34
2019-02-11T06:53:11.204Z,5.35
2019-02-11T06:55:39.456Z,5.35
2019-02-11T06:58:07.736Z,5.39
2019-02-11T07:00:36.031Z,5.39
2019-02-11T07:03:04.337Z,5.44
2019-02-11T07:05:32.588Z,5.49
2019-02-11T07:08:00.890Z,5.46
2019-02-11T07:10:29.206Z,5.43
2019-02-11T07:12:57.527Z,5.46
2019-02-11T07:15:25.809Z,5.44
2019-02-11T07:17:54.126Z,5.37
2019-02-11T07:20:22.412Z,5.42
2019-02-11T07:22:50.697Z,5.42
2019-02-11T07:25:19.014Z,5.34
2019-02-11T07:27:47.306Z,5.34
2019-02-11T07:30:15.627Z,5.20
2019-02-11T07:32:43.913Z,5.20
2019-02-11T07:35:13.219Z,5.25
2019-02-11T07:37:41.514Z,5.15
2019-02-11T07:40:11.451Z,5.15
2019-02-11T07:42:41.364Z,5.21
2019-02-11T07:45:12.469Z,5.14
2019-02-11T07:47:40.732Z,5.16
2019-02-11T07:50:09.087Z,5.16
2019-02-11T07:52:37.371Z,5.19
2019-02-11T07:55:06.065Z,5.22
2019-02-11T07:57:34.406Z,5.22
2019-02-11T08:00:02.745Z,5.23
2019-02-11T08:02:31.023Z,5.26
2019-02-11T08:04:59.415Z,5.26
2019-02-11T08:07:27.722Z,5.33
2019-02-11T08:09:55.989Z,5.41
2019-02-11T08:12:24.254Z,5.41
2019-02-11T08:14:52.614Z,5.50
2019-02-11T08:17:21.586Z,5.50
2019-02-11T08:19:49.974Z,5.57
2019-02-11T08:22:18.262Z,5.58
2019-02-11T08:24:46.511Z,5.58
2019-02-11T08:27:14.799Z,5.61
2019-02-11T08:29:43.051Z,5.62
2019-02-11T08:32:11.403Z,5.83
2019-02-11T08:34:39.666Z,5.83
2019-02-11T08:37:07.934Z,5.93
2019-02-11T08:39:36.343Z,5.89
2019-02-11T08:42:04.593Z,5.89
2019-02-11T08:44:33.649Z,5.91
2019-02-11T08:47:02.130Z,5.91
2019-02-11T08:49:30.389Z,5.95
2019-02-11T08:51:59.628Z,5.93
2019-02-11T08:54:27.964Z,5.93
2019-02-11T08:56:57.472Z,6.01
2019-02-11T08:59:25.875Z,6.06
2019-02-11T09:01:54.177Z,6.06
2019-02-11T09:04:22.510Z,6.16
2019-02-11T09:06:50.830Z,6.23
2019-02-11T09:09:19.152Z,6.26
2019-02-11T09:11:47.518Z,6.26
2019-02-11T09:14:15.772Z,6.29
2019-02-11T09:16:44.098Z,6.46
2019-02-11T09:19:12.506Z,6.46
2019-02-11T09:21:40.810Z,6.54
2019-02-11T09:24:09.102Z,6.59
2019-02-11T09:26:37.339Z,6.64
2019-02-11T09:29:05.753Z,6.66
2019-02-11T09:31:34.149Z,6.69
2019-02-11T09:34:02.434Z,6.70
2019-02-11T09:36:30.778Z,6.76
2019-02-11T09:38:59.109Z,6.80
2019-02-11T09:41:27.486Z,6.85
2019-02-11T09:43:55.733Z,6.82
2019-02-11T09:46:24.036Z,6.86
2019-02-11T09:48:52.992Z,6.84
2019-02-11T09:51:23.289Z,6.87
2019-02-11T09:53:51.589Z,6.82
2019-02-11T09:56:19.909Z,6.74
2019-02-11T09:58:48.280Z,6.79
2019-02-11T10:01:17.450Z,6.78
2019-02-11T10:03:45.710Z,6.81
2019-02-11T10:06:14.003Z,6.81
2019-02-11T10:08:42.373Z,6.87
2019-02-11T10:11:10.668Z,6.93
2019-02-11T10:13:38.932Z,7.02
2019-02-11T10:16:12.381Z,7.05
2019-02-11T10:18:37.170Z,7.10
2019-02-11T10:21:05.555Z,7.14
2019-02-11T10:23:33.803Z,7.20
2019-02-11T10:26:02.102Z,7.26
2019-02-11T10:28:30.374Z,7.32
2019-02-11T10:30:58.759Z,7.40
2019-02-11T10:33:27.276Z,7.54
2019-02-11T10:35:55.559Z,7.53
2019-02-11T10:38:23.833Z,7.56
2019-02-11T10:40:52.086Z,7.56
2019-02-11T10:43:20.353Z,7.57
2019-02-11T10:45:48.661Z,7.57
2019-02-11T10:48:17.067Z,7.62
2019-02-11T10:50:45.318Z,7.67
2019-02-11T10:53:13.570Z,7.73
2019-02-11T10:55:41.888Z,7.74
2019-02-11T10:58:10.469Z,7.77
2019-02-11T11:00:38.856Z,7.84
2019-02-11T11:03:07.134Z,7.86
2019-02-11T11:05:35.424Z,8.00
2019-02-11T11:08:03.857Z,8.06
2019-02-11T11:10:35.249Z,8.14
2019-02-11T11:13:03.494Z,7.82
2019-02-11T11:15:31.882Z,7.53
2019-02-11T11:18:00.141Z,7.29
2019-02-11T11:20:28.458Z,7.14
2019-02-11T11:22:56.783Z,7.05
2019-02-11T11:25:25.077Z,7.00
2019-02-11T11:27:53.323Z,6.95
2019-02-11T11:30:21.627Z,7.02
2019-02-11T11:32:49.924Z,7.10
2019-02-11T11:35:18.725Z,7.16
2019-02-11T11:37:46.977Z,7.27
2019-02-11T11:40:20.740Z,7.43
2019-02-11T11:42:49.012Z,7.53
2019-02-11T11:45:18.917Z,7.59
2019-02-11T11:47:47.170Z,7.49
2019-02-11T11:50:16.279Z,7.29
2019-02-11T11:52:44.523Z,7.23
2019-02-11T11:55:18.955Z,7.11
2019-02-11T11:57:47.360Z,7.06
2019-02-11T12:00:28.494Z,7.01
2019-02-11T12:03:03.001Z,7.07
2019-02-11T12:05:27.148Z,7.22
2019-02-11T12:07:55.436Z,7.29
2019-02-11T12:10:23.684Z,7.32
2019-02-11T12:12:52.105Z,7.40
2019-02-11T12:15:22.285Z,7.39
2019-02-11T12:17:50.867Z,7.45
2019-02-11T12:20:19.139Z,7.45
2019-02-11T12:22:47.579Z,7.54
2019-02-11T12:25:21.498Z,7.57
2019-02-11T12:27:49.783Z,7.63
2019-02-11T12:30:23.706Z,7.75
2019-02-11T12:32:54.721Z,7.70
2019-02-11T12:35:21.993Z,7.78
2019-02-11T12:37:50.293Z,7.87
2019-02-11T12:40:18.539Z,7.93
2019-02-11T12:42:46.819Z,7.97
2019-02-11T12:45:20.130Z,8.03
2019-02-11T12:47:48.404Z,8.05
2019-02-11T12:50:18.150Z,8.14
2019-02-11T12:52:46.406Z,8.10
2019-02-11T12:55:16.020Z,8.09
2019-02-11T12:57:44.281Z,8.02
2019-02-11T13:00:18.663Z,7.94
2019-02-11T13:02:48.031Z,7.83
2019-02-11T13:05:16.525Z,7.82
2019-02-11T13:07:44.806Z,7.86
2019-02-11T13:10:18.785Z,7.97
2019-02-11T13:12:47.060Z,8.03
2019-02-11T13:15:41.682Z,8.06
2019-02-11T13:17:47.832Z,8.08
2019-02-11T13:20:20.298Z,8.08
2019-02-11T13:22:48.646Z,7.97
2019-02-11T13:25:17.797Z,8.00
2019-02-11T13:27:46.252Z,7.94
2019-02-11T13:30:19.456Z,7.89
2019-02-11T13:32:47.750Z,7.90
2019-02-11T13:35:16.031Z,7.96
2019-02-11T13:37:44.410Z,7.91
2019-02-11T13:40:12.697Z,7.91
2019-02-11T13:42:41.061Z,7.87
2019-02-11T13:45:14.741Z,7.81
2019-02-11T13:47:53.634Z,7.76
2019-02-11T13:50:15.710Z,7.74
2019-02-11T13:52:44.381Z,7.78
2019-02-11T13:55:12.629Z,7.69
2019-02-11T13:57:40.904Z,7.60
2019-02-11T14:00:12.642Z,7.61
2019-02-11T14:02:52.654Z,7.64
2019-02-11T14:05:20.887Z,7.61
2019-02-11T14:07:49.165Z,7.61
2019-02-11T14:10:17.422Z,7.61
2019-02-11T14:12:48.392Z,7.66
2019-02-11T14:15:20.515Z,7.65
2019-02-11T14:17:46.668Z,7.68
2019-02-11T14:20:23.520Z,7.71
2019-02-11T14:22:51.849Z,7.61
2019-02-11T14:25:39.054Z,7.58
2019-02-11T14:27:50.228Z,7.59
2019-02-11T14:30:20.777Z,7.60
2019-02-11T14:32:48.995Z,7.66
2019-02-11T14:35:18.453Z,7.72
2019-02-11T14:37:46.757Z,7.75
2019-02-11T14:40:15.246Z,7.73
2019-02-11T14:42:43.540Z,7.80
2019-02-11T14:45:17.149Z,7.79
2019-02-11T14:47:45.503Z,7.88
2019-02-11T14:50:13.855Z,7.95
2019-02-11T14:52:42.127Z,8.03
2019-02-11T14:55:11.071Z,7.99
2019-02-11T14:57:39.350Z,8.00
2019-02-11T15:00:17.509Z,8.03
2019-02-11T15:02:45.968Z,8.04
2019-02-11T15:05:14.606Z,8.00
2019-02-11T15:07:43.087Z,7.86
2019-02-11T15:10:12.597Z,7.68
2019-02-11T15:12:41.447Z,7.37
2019-02-11T15:15:11.033Z,7.06
2019-02-11T15:17:40.782Z,6.95
2019-02-11T15:20:11.437Z,6.88
2019-02-11T15:22:39.721Z,6.70
2019-02-11T15:25:12.848Z,6.52
2019-02-11T15:27:41.110Z,6.53
2019-02-11T15:30:14.128Z,6.46
2019-02-11T15:32:42.399Z,6.45
2019-02-11T15:35:10.661Z,6.37
2019-02-11T15:37:39.028Z,6.38
2019-02-11T15:40:12.532Z,6.26
2019-02-11T15:42:40.802Z,6.24
2019-02-11T15:45:11.791Z,6.24
2019-02-11T15:47:40.180Z,6.23
2019-02-11T15:50:10.867Z,6.18
2019-02-11T15:52:40.749Z,6.23
2019-02-11T15:55:21.416Z,6.30
2019-02-11T15:57:49.701Z,6.24
2019-02-11T16:00:22.299Z,6.16
2019-02-11T16:02:51.756Z,6.18
2019-02-11T16:05:20.523Z,6.20
2019-02-11T16:07:48.774Z,6.24
2019-02-11T16:10:25.605Z,6.21
2019-02-11T16:12:53.879Z,6.21
2019-02-11T16:15:22.180Z,6.06
2019-02-11T16:17:50.467Z,6.16
2019-02-11T16:20:18.696Z,6.03
2019-02-11T16:22:46.968Z,6.03
2019-02-11T16:25:16.797Z,5.94
2019-02-11T16:27:45.058Z,5.90
2019-02-11T16:30:16.116Z,5.88
2019-02-11T16:32:44.380Z,5.84
2019-02-11T16:35:14.596Z,5.80
2019-02-11T16:37:42.874Z,5.80
2019-02-11T16:40:16.490Z,5.81
2019-02-11T16:42:44.737Z,5.84
2019-02-11T16:45:13.024Z,5.79
2019-02-11T16:47:41.287Z,5.68
2019-02-11T16:50:11.527Z,5.68
2019-02-11T16:52:39.961Z,5.69
2019-02-11T16:55:12.096Z,5.69
2019-02-11T16:57:40.428Z,5.67
2019-02-11T17:00:11.700Z,5.59
2019-02-11T17:02:39.993Z,5.68
2019-02-11T17:05:10.287Z,5.61
2019-02-11T17:07:42.365Z,5.53
2019-02-11T17:10:15.442Z,5.53
2019-02-11T17:12:43.691Z,5.52
2019-02-11T17:15:19.375Z,5.48
2019-02-11T17:17:47.622Z,5.48
2019-02-11T17:20:16.536Z,5.46
2019-02-11T17:22:45.039Z,5.47
2019-02-11T17:25:14.046Z,5.44
2019-02-11T17:27:42.711Z,5.44
2019-02-11T17:30:14.279Z,5.39
2019-02-11T17:32:42.527Z,5.44
2019-02-11T17:35:10.849Z,5.40
2019-02-11T17:37:39.185Z,5.35
2019-02-11T17:40:13.062Z,5.33
2019-02-11T17:42:41.328Z,5.33
2019-02-11T17:45:12.392Z,5.35
2019-02-11T17:47:40.706Z,5.35
2019-02-11T17:50:10.568Z,5.36
2019-02-11T17:52:38.827Z,5.36
2019-02-11T17:55:10.093Z,5.42
2019-02-11T17:57:40.010Z,5.42
2019-02-11T18:00:18.822Z,5.35
2019-02-11T18:02:47.138Z,5.38
2019-02-11T18:05:15.722Z,5.35
2019-02-11T18:07:44.041Z,5.32
2019-02-11T18:10:12.350Z,5.32
2019-02-11T18:12:40.632Z,5.30
2019-02-11T18:15:10.684Z,5.23
2019-02-11T18:17:39.028Z,5.19
2019-02-11T18:20:08.975Z,5.06
2019-02-11T18:22:37.287Z,5.06
2019-02-11T18:25:07.731Z,5.12
2019-02-11T18:27:35.968Z,4.98
2019-02-11T18:30:07.099Z,5.04
2019-02-11T18:32:35.351Z,5.04
2019-02-11T18:35:04.606Z,4.98
2019-02-11T18:37:32.905Z,4.96
2019-02-11T18:40:01.320Z,4.99
2019-02-11T18:42:29.595Z,4.99
2019-02-11T18:44:57.884Z,4.97
2019-02-11T18:47:26.177Z,4.97
2019-02-11T18:49:54.553Z,4.96
2019-02-11T18:52:22.935Z,4.93
2019-02-11T18:54:51.228Z,5.00
2019-02-11T18:57:19.625Z,5.03
2019-02-11T18:59:47.901Z,5.03
2019-02-11T19:02:16.236Z,5.02
2019-02-11T19:04:44.629Z,5.08
2019-02-11T19:07:12.938Z,5.08
2019-02-11T19:09:41.313Z,5.09
2019-02-11T19:12:10.038Z,5.07
2019-02-11T19:14:38.377Z,5.09
2019-02-11T19:17:06.971Z,5.09
2019-02-11T19:19:42.810Z,5.09
2019-02-11T19:22:05.259Z,5.10
2019-02-11T19:24:33.721Z,5.10
2019-02-11T19:27:02.081Z,5.11
2019-02-11T19:29:30.373Z,5.11
2019-02-11T19:31:58.836Z,5.16
2019-02-11T19:34:27.212Z,5.15
2019-02-11T19:36:55.692Z,5.20
2019-02-11T19:39:24.029Z,5.17
2019-02-11T19:41:52.565Z,5.12
2019-02-11T19:44:20.903Z,5.12
2019-02-11T19:46:49.149Z,5.17
2019-02-11T19:49:17.440Z,5.14
2019-02-11T19:51:45.826Z,5.14
2019-02-11T19:54:14.105Z,5.18
2019-02-11T19:56:42.433Z,5.20
2019-02-11T19:59:10.751Z,5.20
2019-02-11T20:01:40.645Z,5.20
2019-02-11T20:04:08.963Z,5.19
2019-02-11T20:06:37.210Z,5.18
2019-02-11T20:09:05.655Z,5.18
2019-02-11T20:11:33.939Z,5.12
2019-02-11T20:14:02.345Z,5.13
2019-02-11T20:16:30.650Z,5.10
2019-02-11T20:18:58.917Z,5.00
2019-02-11T20:21:27.267Z,5.00
2019-02-11T20:23:55.498Z,5.05
2019-02-11T20:26:23.794Z,4.97
2019-02-11T20:28:52.453Z,4.97
2019-02-11T20:31:20.915Z,4.95
2019-02-11T20:33:49.685Z,4.92
2019-02-11T20:36:18.063Z,4.92
2019-02-11T20:38:46.390Z,4.91
2019-02-11T20:41:14.700Z,4.89
2019-02-11T20:43:42.940Z,4.81
2019-02-11T20:46:11.284Z,4.81
2019-02-11T20:48:39.591Z,4.75
2019-02-11T20:51:07.915Z,4.75
2019-02-11T20:53:36.201Z,4.80
2019-02-11T20:56:04.458Z,4.79
2019-02-11T20:58:32.729Z,4.79
2019-02-11T21:01:02.830Z,4.80
2019-02-11T21:03:31.040Z,4.85
2019-02-11T21:05:59.291Z,4.85
2019-02-11T21:08:27.573Z,4.85
2019-02-11T21:10:56.303Z,4.84
2019-02-11T21:13:24.578Z,4.84
2019-02-11T21:15:52.866Z,4.84
2019-02-11T21:18:21.106Z,4.84
2019-02-11T21:20:49.533Z,4.75
2019-02-11T21:23:17.824Z,4.75
2019-02-11T21:25:46.109Z,4.74
2019-02-11T21:28:14.427Z,4.76
2019-02-11T21:30:42.680Z,4.72
2019-02-11T21:33:10.955Z,4.70
2019-02-11T21:35:40.853Z,4.70
2019-02-11T21:38:09.238Z,4.70
2019-02-11T21:40:37.546Z,4.72
2019-02-11T21:43:05.811Z,4.72
2019-02-11T21:45:34.075Z,4.72
2019-02-11T21:48:02.482Z,4.70
2019-02-11T21:50:30.765Z,4.71
2019-02-11T21:52:59.047Z,4.71
2019-02-11T21:55:27.311Z,4.74
2019-02-11T21:57:55.602Z,4.73
2019-02-11T22:00:24.051Z,4.68
2019-02-11T22:02:52.452Z,4.70
2019-02-11T22:05:20.725Z,4.65
2019-02-11T22:07:49.014Z,4.63
2019-02-11T22:10:19.482Z,4.62
2019-02-11T22:12:47.738Z,4.59
2019-02-11T22:15:16.309Z,4.61
2019-02-11T22:17:44.590Z,4.61
2019-02-11T22:20:18.298Z,4.62
2019-02-11T22:22:46.598Z,4.64
2019-02-11T22:25:14.898Z,4.58
2019-02-11T22:27:43.164Z,4.65
2019-02-11T22:30:22.813Z,4.65
2019-02-11T22:32:51.114Z,4.63
2019-02-11T22:35:19.366Z,4.65
2019-02-11T22:37:49.603Z,4.61
2019-02-11T22:40:17.875Z,4.61
2019-02-11T22:42:46.172Z,4.60
2019-02-11T22:45:19.508Z,4.58
2019-02-11T22:47:47.888Z,4.56
2019-02-11T22:50:16.290Z,4.53
2019-02-11T22:52:44.573Z,4.49
2019-02-11T22:55:14.263Z,4.49
2019-02-11T22:57:42.591Z,4.49
2019-02-11T23:00:42.497Z,4.44
2019-02-11T23:03:10.780Z,4.45
2019-02-11T23:05:39.026Z,4.43
2019-02-11T23:08:07.655Z,4.42
2019-02-11T23:10:35.980Z,4.42
2019-02-11T23:13:04.270Z,4.33
2019-02-11T23:15:32.536Z,4.29
2019-02-11T23:18:00.810Z,4.29
2019-02-11T23:20:29.055Z,4.25
2019-02-11T23:22:57.441Z,4.20
2019-02-11T23:25:25.712Z,4.17
2019-02-11T23:27:53.961Z,4.15
2019-02-11T23:30:22.261Z,4.12
2019-02-11T23:32:50.552Z,4.08
2019-02-11T23:35:18.849Z,4.03
2019-02-11T23:37:47.096Z,3.98
2019-02-11T23:40:15.419Z,3.94
2019-02-11T23:42:43.776Z,3.90
2019-02-11T23:45:12.045Z,3.88
2019-02-11T23:47:41.997Z,3.89
2019-02-11T23:50:11.352Z,3.87
2019-02-11T23:52:39.591Z,3.89
2019-02-11T23:55:09.305Z,3.89
2019-02-11T23:57:37.556Z,3.84
